モントリオール/トルドー の空港の天気 - METARとTAF

モントリオール・ピエール・エリオット・トルドー国際空港 ( CYUL / YUL ) - カナダ ケベック州モントリオール
飛行場実況気象(Metar)
観測時間06/25 09:00 EDT (06/25 13:00 UTC)
風向・風速北 5m/s 瞬間風速8m/s
視程10km以上
天気現象
少しの雲 雲底高度 1830m
少しの雲 雲底高度 2590m
気温17℃
湿度48%
気圧1017.8hPa
METARCYUL 251300Z 35010G16KT 30SM FEW060 FEW085 17/06 A3005 RMK SC1AC1 SLP178 DENSITY ALT 300FT
過去の天気等 Google飛行場航空写真 Wunderground天気予報

過去48時間のMETAR

飛行場予報(TAF)
発表時間: 6/25 07:38 EDT (6/25 11:38 UTC)
予報対象時間: 25日8時 EDT ~ 26日8時 EDT
風向・風速北 4m/s
視程10km以上
少しの雲 雲底高度 2130m
25日9時 EDT ~ 25日11時 EDT に徐々に
風向・風速北北西 6m/s 瞬間風速 11m/s
25日19時 EDT ~ 25日21時 EDT に徐々に
風向・風速北北西 4m/s
TAF CYUL 251138Z 2512/2612 35008KT P6SM FEW070
BECMG 2513/2515 34012G22KT
BECMG 2523/2601 34008KT RMK NXT FCST BY 251500Z